Time;durP1;ratioP1;P1;durP2;ratioP2;P2;SDS_P1;SDS_P2;PMS_P1;PMS_P2;Temp;Humidity;BMP_temperature;BMP_pressure;BME280_temperature;BME280_humidity;BME280_pressure;Samples;Min_cycle;Max_cycle;Signal;HPM_P1;HPM_P2
2023/04/02 00:02:26;;;;;;;1.47;1.47;;;;;;;12.79;54.49;93744.34;5028719;28;20252;-50
2023/04/02 00:05:30;;;;;;;1.50;1.40;;;;;;;12.77;54.33;93745.47;5029052;28;20223;-55
2023/04/02 00:07:59;;;;;;;1.20;1.20;;;;;;;12.74;54.51;93744.06;5028714;28;20278;-52
2023/04/02 00:10:28;;;;;;;1.50;1.40;;;;;;;12.73;54.44;93739.91;5028758;28;20676;-56
2023/04/02 00:13:17;;;;;;;1.30;1.30;;;;;;;12.74;54.43;93738.94;5028241;28;20220;-53
2023/04/02 00:15:49;;;;;;;1.60;1.50;;;;;;;12.72;54.59;93733.19;5028658;28;20199;-56
2023/04/02 00:18:17;;;;;;;1.60;1.50;;;;;;;12.70;54.42;93742.81;5028801;28;20769;-48
2023/04/02 00:20:48;;;;;;;1.47;1.37;;;;;;;12.69;54.45;93737.84;5028318;28;20203;-51
2023/04/02 00:23:16;;;;;;;1.53;1.43;;;;;;;12.49;54.29;93717.03;5028609;28;20572;-51
2023/04/02 00:25:45;;;;;;;1.40;1.40;;;;;;;12.67;54.47;93737.25;5028576;28;20250;-48
2023/04/02 00:28:14;;;;;;;1.40;1.40;;;;;;;12.49;54.60;93710.16;5028373;28;20196;-48
2023/04/02 00:30:49;;;;;;;2.13;1.47;;;;;;;12.52;54.44;93717.50;5028712;28;20548;-48
2023/04/02 00:33:18;;;;;;;1.30;1.30;;;;;;;12.55;54.47;93718.91;5028464;28;20615;-50
2023/04/02 00:35:47;;;;;;;1.50;1.40;;;;;;;12.60;54.59;93733.78;5028278;28;20210;-49
2023/04/02 00:38:21;;;;;;;2.30;1.63;;;;;;;12.60;54.53;93724.31;5028259;28;20657;-49
2023/04/02 00:40:49;;;;;;;3.03;1.30;;;;;;;12.57;54.48;93718.75;5028360;28;20192;-48
2023/04/02 00:43:16;;;;;;;2.13;1.73;;;;;;;12.61;54.28;93735.34;5028584;28;20204;-50
2023/04/02 00:45:49;;;;;;;1.40;1.40;;;;;;;12.61;54.19;93730.22;5031952;28;20691;-48
2023/04/02 00:48:29;;;;;;;1.37;1.37;;;;;;;12.55;54.01;93708.66;5032036;28;20206;-50
2023/04/02 00:50:56;;;;;;;1.23;1.20;;;;;;;12.62;54.32;93727.50;5032072;28;20179;-53
2023/04/02 00:53:27;;;;;;;1.47;1.10;;;;;;;12.63;53.97;93729.09;5031709;28;20231;-49
2023/04/02 00:55:56;;;;;;;1.20;1.20;;;;;;;12.64;53.95;93735.03;5032241;28;20250;-50
2023/04/02 00:58:36;;;;;;;1.23;1.23;;;;;;;12.62;54.12;93726.72;5031691;28;20286;-51
2023/04/02 01:01:03;;;;;;;1.33;1.30;;;;;;;12.62;53.88;93724.94;5031780;28;20191;-49
2023/04/02 01:03:34;;;;;;;1.20;1.20;;;;;;;12.45;53.73;93705.53;5031836;28;20643;-50
2023/04/02 01:06:09;;;;;;;1.30;1.20;;;;;;;12.65;53.93;93734.03;5031856;28;20206;-49
2023/04/02 01:08:50;;;;;;;1.63;1.53;;;;;;;12.65;53.93;93726.34;5031949;28;20195;-49
2023/04/02 01:11:31;;;;;;;1.60;1.50;;;;;;;12.64;53.90;93730.69;5031822;28;20187;-57
2023/04/02 01:14:06;;;;;;;1.47;1.37;;;;;;;12.64;53.92;93724.75;5031432;28;20223;-52
2023/04/02 01:16:46;;;;;;;1.30;1.30;;;;;;;12.60;53.92;93720.94;5031224;28;20681;-56
2023/04/02 01:19:38;;;;;;;1.30;1.30;;;;;;;12.64;53.85;93728.13;5031482;28;20322;-52
2023/04/02 01:22:09;;;;;;;1.30;1.30;;;;;;;12.64;53.84;93727.31;5031336;28;20195;-49
2023/04/02 01:24:37;;;;;;;1.20;1.20;;;;;;;12.64;53.76;93727.31;5031074;28;20865;-50
2023/04/02 01:27:07;;;;;;;1.20;1.20;;;;;;;12.65;53.84;93732.31;5031424;28;20188;-54
2023/04/02 01:29:38;;;;;;;1.30;1.30;;;;;;;12.66;53.97;93726.19;5031056;28;20198;-48
2023/04/02 01:32:07;;;;;;;1.30;1.20;;;;;;;12.66;53.61;93736.44;5031181;28;20701;-49
2023/04/02 01:34:35;;;;;;;1.27;1.27;;;;;;;12.65;53.56;93734.03;5031033;28;20752;-54
2023/04/02 01:37:21;;;;;;;1.30;1.30;;;;;;;12.66;53.55;93740.78;5031038;28;20190;-53
2023/04/02 01:40:04;;;;;;;1.50;1.50;;;;;;;12.49;53.53;93712.72;5031310;28;20253;-55
2023/04/02 01:42:36;;;;;;;1.20;1.20;;;;;;;12.67;53.60;93737.25;5031122;28;20682;-49
2023/04/02 01:45:09;;;;;;;1.40;1.30;;;;;;;12.67;53.40;93739.81;5031048;28;20733;-49
2023/04/02 01:47:38;;;;;;;1.23;1.23;;;;;;;12.67;53.42;93740.59;5031226;28;20207;-50
2023/04/02 01:50:20;;;;;;;1.73;1.63;;;;;;;12.67;53.49;93730.34;5030728;28;20659;-48
2023/04/02 01:52:50;;;;;;;1.30;1.30;;;;;;;12.65;53.51;93723.78;5030557;28;20228;-53
2023/04/02 01:55:20;;;;;;;1.40;1.40;;;;;;;12.67;53.43;93727.78;5030044;28;20207;-50
2023/04/02 01:57:51;;;;;;;1.40;1.30;;;;;;;12.69;53.36;93727.59;5030450;28;20237;-49
2023/04/02 02:00:21;;;;;;;1.67;1.57;;;;;;;12.52;53.34;93693.59;5030593;28;20207;-48
2023/04/02 02:02:50;;;;;;;1.20;1.20;;;;;;;12.69;53.19;93718.13;5030681;28;20196;-49
2023/04/02 02:05:19;;;;;;;1.23;1.23;;;;;;;12.67;53.20;93717.53;5031026;28;20293;-51
2023/04/02 02:07:46;;;;;;;1.63;1.30;;;;;;;12.69;53.18;93715.56;5030646;28;20196;-48
2023/04/02 02:10:15;;;;;;;1.20;1.20;;;;;;;12.63;53.28;93703.44;5030508;28;20306;-50
2023/04/02 02:12:44;;;;;;;1.30;1.23;;;;;;;12.54;53.15;93700.16;5030269;28;20234;-52
2023/04/02 02:15:16;;;;;;;1.20;1.20;;;;;;;12.71;53.16;93720.53;5030635;28;20219;-50
2023/04/02 02:17:44;;;;;;;1.40;1.30;;;;;;;12.70;53.07;93724.09;5030958;28;20183;-53
2023/04/02 02:20:13;;;;;;;1.87;1.50;;;;;;;12.51;53.10;93694.56;5030643;28;20199;-52
2023/04/02 02:22:45;;;;;;;1.30;1.30;;;;;;;12.71;53.05;93730.81;5030585;28;20200;-52
2023/04/02 02:25:15;;;;;;;1.33;1.30;;;;;;;12.74;53.11;93730.47;5030417;28;20179;-49
2023/04/02 02:28:00;;;;;;;1.67;1.40;;;;;;;12.73;53.05;93732.19;5029962;28;20286;-51
2023/04/02 02:30:30;;;;;;;1.40;1.40;;;;;;;12.72;52.97;93737.50;5030715;28;20218;-48
2023/04/02 02:33:03;;;;;;;1.20;1.20;;;;;;;12.71;52.94;93739.28;5030067;28;20257;-54
2023/04/02 02:35:36;;;;;;;1.30;1.30;;;;;;;12.71;52.81;93738.50;5030383;28;20191;-48
2023/04/02 02:38:23;;;;;;;1.57;1.33;;;;;;;12.67;52.90;93729.56;5029781;28;20726;-52
2023/04/02 02:40:54;;;;;;;1.50;1.40;;;;;;;12.59;52.99;93715.03;5030172;28;20282;-57
2023/04/02 02:43:21;;;;;;;1.57;1.57;;;;;;;12.70;53.04;93731.78;5029885;28;20207;-52
2023/04/02 02:45:50;;;;;;;1.67;1.43;;;;;;;12.70;52.72;93734.34;5030048;28;20571;-52
2023/04/02 02:48:23;;;;;;;1.47;1.37;;;;;;;12.68;53.01;93729.38;5029758;28;20691;-55
2023/04/02 02:50:51;;;;;;;1.30;1.30;;;;;;;12.67;52.83;93735.47;5030138;28;20279;-55
2023/04/02 02:53:20;;;;;;;1.90;1.57;;;;;;;12.67;53.08;93729.56;5029405;28;20342;-52
2023/04/02 02:55:52;;;;;;;1.43;1.37;;;;;;;12.66;53.26;93723.63;5030099;28;20191;-53
2023/04/02 02:58:26;;;;;;;1.40;1.30;;;;;;;12.64;52.95;93728.13;5029454;28;20634;-54
2023/04/02 03:00:53;;;;;;;1.70;1.60;;;;;;;12.64;53.05;93733.25;5029581;28;20286;-58
2023/04/02 03:03:24;;;;;;;1.40;1.37;;;;;;;12.65;52.96;93731.47;5029759;28;20194;-58
2023/04/02 03:05:53;;;;;;;1.70;1.60;;;;;;;12.64;53.05;93733.25;5030218;28;20196;-54
2023/04/02 03:08:27;;;;;;;1.50;1.47;;;;;;;12.62;52.94;93729.28;5029331;28;20207;-61
2023/04/02 03:11:01;;;;;;;1.37;1.30;;;;;;;12.52;52.99;93714.13;5029699;28;20582;-50
2023/04/02 03:13:34;;;;;;;1.40;1.30;;;;;;;12.63;53.14;93736.00;5028999;28;20218;-52
2023/04/02 03:16:05;;;;;;;1.60;1.50;;;;;;;12.50;52.93;93721.19;5029608;28;20300;-51
2023/04/02 03:18:43;;;;;;;1.60;1.50;;;;;;;12.60;53.01;93726.06;5029137;28;20192;-52
2023/04/02 03:21:20;;;;;;;1.77;1.30;;;;;;;12.63;53.00;93733.44;5029483;28;20230;-49
2023/04/02 03:23:53;;;;;;;1.50;1.50;;;;;;;12.18;53.22;93665.88;5028956;28;20272;-51
2023/04/02 03:26:25;;;;;;;2.67;1.40;;;;;;;12.62;52.82;93742.09;5029321;28;20191;-52
2023/04/02 03:28:57;;;;;;;1.37;1.37;;;;;;;12.59;52.96;93740.66;5029122;28;20206;-51
2023/04/02 03:31:28;;;;;;;1.50;1.40;;;;;;;12.61;52.85;93741.31;5029244;28;20195;-50
2023/04/02 03:33:59;;;;;;;1.40;1.30;;;;;;;12.60;53.03;93744.03;5029126;28;20219;-55
2023/04/02 03:36:30;;;;;;;2.00;1.30;;;;;;;12.59;52.76;93743.25;5029107;28;20287;-50
2023/04/02 03:39:04;;;;;;;1.70;1.60;;;;;;;12.58;52.88;93748.53;5029009;28;20203;-48
2023/04/02 03:41:38;;;;;;;1.40;1.30;;;;;;;12.56;52.94;93746.13;5028992;28;20184;-50
2023/04/02 03:44:18;;;;;;;1.50;1.50;;;;;;;12.55;52.82;93742.00;5029296;28;20302;-49
2023/04/02 03:46:49;;;;;;;2.37;1.70;;;;;;;12.47;52.81;93732.59;5028743;28;20183;-51
2023/04/02 03:49:24;;;;;;;1.43;1.37;;;;;;;12.52;53.06;93747.44;5028940;28;20283;-51
2023/04/02 03:51:56;;;;;;;1.30;1.30;;;;;;;12.51;52.96;93740.72;5028877;28;20191;-53
2023/04/02 03:54:23;;;;;;;1.20;1.20;;;;;;;12.49;53.01;93746.03;5028828;28;20231;-51
2023/04/02 03:56:52;;;;;;;1.50;1.40;;;;;;;12.48;53.05;93739.34;5028753;28;20258;-50
2023/04/02 03:59:28;;;;;;;1.43;1.43;;;;;;;12.47;53.10;93745.41;5029242;28;20655;-49
2023/04/02 04:02:00;;;;;;;2.13;1.23;;;;;;;12.46;52.97;93740.47;5029068;28;20668;-54
2023/04/02 04:04:31;;;;;;;1.50;1.40;;;;;;;12.45;52.93;93744.00;5028984;28;20648;-54
2023/04/02 04:07:00;;;;;;;1.93;1.30;;;;;;;12.44;53.01;93747.53;5029087;28;20215;-52
2023/04/02 04:09:30;;;;;;;1.30;1.20;;;;;;;12.43;52.84;93748.47;5029107;28;20230;-52
2023/04/02 04:12:07;;;;;;;1.93;1.40;;;;;;;12.43;53.17;93753.63;5028544;28;20195;-56
2023/04/02 04:14:37;;;;;;;1.43;1.20;;;;;;;12.28;53.07;93739.00;5028958;28;20211;-53
2023/04/02 04:17:14;;;;;;;1.60;1.50;;;;;;;12.41;52.95;93761.50;5028415;28;20600;-53
2023/04/02 04:19:46;;;;;;;1.30;1.30;;;;;;;12.42;52.88;93759.72;5031504;28;20601;-49
2023/04/02 04:22:17;;;;;;;1.30;1.20;;;;;;;12.41;52.87;93764.06;5032646;28;20721;-53
2023/04/02 04:24:46;;;;;;;1.23;1.23;;;;;;;12.43;53.06;93769.00;5032385;28;20195;-51
2023/04/02 04:27:23;;;;;;;1.57;1.47;;;;;;;12.40;52.97;93766.81;5032097;28;20660;-51
2023/04/02 04:29:57;;;;;;;1.30;1.30;;;;;;;12.44;52.86;93765.50;5032740;28;20196;-48
2023/04/02 04:32:30;;;;;;;1.33;1.30;;;;;;;12.23;52.61;93743.84;5032638;28;20191;-50
2023/04/02 04:35:05;;;;;;;2.07;1.97;;;;;;;12.44;52.91;93771.41;5032260;28;20227;-54
2023/04/02 04:37:35;;;;;;;1.63;1.53;;;;;;;12.45;53.04;93780.69;5032422;28;20222;-47
2023/04/02 04:40:10;;;;;;;1.40;1.40;;;;;;;12.20;52.90;93748.50;5032459;28;20202;-48
2023/04/02 04:42:42;;;;;;;1.70;1.60;;;;;;;12.45;52.93;93792.72;5032371;28;20195;-48
2023/04/02 04:45:23;;;;;;;1.70;1.60;;;;;;;12.44;53.04;93791.91;5032344;28;20196;-49
2023/04/02 04:47:55;;;;;;;1.93;1.83;;;;;;;12.25;53.36;93762.38;5032618;28;20184;-52
2023/04/02 04:50:30;;;;;;;2.57;2.27;;;;;;;12.44;53.46;93793.69;5032020;28;20191;-48
2023/04/02 04:53:04;;;;;;;3.40;2.10;;;;;;;12.46;53.40;93789.97;5032029;28;20226;-49
2023/04/02 04:55:38;;;;;;;3.13;2.10;;;;;;;12.51;53.67;93799.72;5031913;28;20215;-47
2023/04/02 04:58:14;;;;;;;2.50;2.10;;;;;;;12.49;53.83;93786.28;5032409;28;20308;-50
2023/04/02 05:00:49;;;;;;;2.37;2.17;;;;;;;12.58;53.64;93792.16;5031861;28;20278;-48
2023/04/02 05:03:25;;;;;;;2.13;1.90;;;;;;;12.68;53.83;93798.63;5032259;28;20191;-48
2023/04/02 05:05:54;;;;;;;2.30;2.10;;;;;;;12.86;53.60;93788.06;5032265;28;20195;-51
2023/04/02 05:08:27;;;;;;;6.00;2.67;;;;;;;13.07;53.18;93798.44;5032056;28;20191;-48
2023/04/02 05:11:00;;;;;;;3.90;2.30;;;;;;;13.36;52.74;93806.41;5031786;28;20729;-50
2023/04/02 05:13:34;;;;;;;4.37;2.87;;;;;;;13.77;52.21;93791.31;5032056;28;20214;-56
2023/04/02 05:16:11;;;;;;;3.27;2.60;;;;;;;14.38;51.87;93791.00;5031719;28;20234;-49
2023/04/02 05:18:43;;;;;;;2.33;2.07;;;;;;;15.15;51.90;93795.44;5031369;28;20186;-51
2023/04/02 05:21:18;;;;;;;2.33;2.10;;;;;;;15.99;51.52;93797.91;5031951;28;20206;-50
2023/04/02 05:23:49;;;;;;;2.00;1.90;;;;;;;16.91;50.92;93801.72;5031585;28;20502;-53
2023/04/02 05:26:19;;;;;;;2.07;1.90;;;;;;;17.91;49.88;93805.75;5032064;28;20187;-50
2023/04/02 05:28:51;;;;;;;2.40;2.20;;;;;;;18.96;49.03;93805.44;5031312;28;20642;-50
2023/04/02 05:31:22;;;;;;;2.30;2.10;;;;;;;20.05;47.89;93810.00;5030660;28;20184;-58
2023/04/02 05:33:50;;;;;;;3.13;2.50;;;;;;;20.93;46.61;93780.06;5031540;28;20686;-53
2023/04/02 05:36:22;;;;;;;2.57;2.10;;;;;;;22.21;45.39;93817.53;5031693;28;20215;-55
2023/04/02 05:38:50;;;;;;;2.00;1.90;;;;;;;23.29;44.38;93820.22;5031197;28;20222;-52
2023/04/02 05:41:25;;;;;;;1.88;1.77;;;;;;;24.28;43.01;93819.50;5031427;28;20759;-54
2023/04/02 05:44:06;;;;;;;3.30;1.83;;;;;;;25.35;42.10;93817.97;5031189;28;20344;-51
2023/04/02 05:46:37;;;;;;;2.22;2.03;;;;;;;26.30;40.91;93828.47;5031696;28;20202;-51
2023/04/02 05:49:11;;;;;;;1.75;1.48;;;;;;;27.21;40.15;93825.31;5030987;28;20184;-59
2023/04/02 05:51:46;;;;;;;4.38;2.08;;;;;;;28.14;39.16;93823.38;5031429;28;20187;-55
2023/04/02 05:54:22;;;;;;;3.25;1.60;;;;;;;29.02;38.20;93837.72;5030944;28;20249;-55
2023/04/02 05:56:54;;;;;;;1.98;1.75;;;;;;;29.83;37.26;93837.09;5031201;28;20187;-52
2023/04/02 05:59:24;;;;;;;1.83;1.73;;;;;;;30.69;36.29;93842.47;5031072;28;20199;-52
2023/04/02 06:01:57;;;;;;;3.85;1.90;;;;;;;31.43;35.98;93842.78;5030997;28;20206;-51
2023/04/02 06:04:29;;;;;;;2.78;1.65;;;;;;;32.13;34.95;93847.97;5030735;28;20196;-50
2023/04/02 06:07:05;;;;;;;6.65;2.50;;;;;;;32.78;34.61;93844.34;5031190;28;20202;-56
2023/04/02 06:09:42;;;;;;;1.65;1.55;;;;;;;33.41;33.83;93842.69;5030991;28;20196;-52
2023/04/02 06:12:18;;;;;;;2.50;2.03;;;;;;;33.97;33.60;93846.66;5030651;28;20187;-50
2023/04/02 06:14:45;;;;;;;2.53;1.95;;;;;;;34.54;33.17;93848.59;5030903;28;20233;-52
2023/04/02 06:17:16;;;;;;;1.88;1.75;;;;;;;35.03;32.55;93838.72;5030495;28;20279;-53
2023/04/02 06:19:43;;;;;;;2.38;1.60;;;;;;;35.59;31.89;93848.41;5030424;28;20249;-57
2023/04/02 06:22:20;;;;;;;1.75;1.65;;;;;;;35.98;31.57;93840.53;5030780;28;20206;-50
2023/04/02 06:24:52;;;;;;;2.22;1.80;;;;;;;36.53;31.19;93851.13;5030311;28;20187;-52
2023/04/02 06:27:21;;;;;;;4.38;1.98;;;;;;;36.98;30.97;93858.56;5030343;28;20295;-51
2023/04/02 06:29:54;;;;;;;1.65;1.55;;;;;;;37.40;30.43;93848.69;5030830;28;20194;-53
2023/04/02 06:32:24;;;;;;;2.75;1.80;;;;;;;37.74;30.21;93846.81;5030264;28;20199;-50
2023/04/02 06:34:51;;;;;;;3.33;1.90;;;;;;;37.96;30.03;93845.66;5030751;28;20298;-52
2023/04/02 06:37:26;;;;;;;1.83;1.73;;;;;;;38.19;29.37;93842.56;5030034;28;20512;-52
2023/04/02 06:39:53;;;;;;;3.55;2.03;;;;;;;38.45;29.52;93845.72;5030489;28;20184;-54
2023/04/02 06:42:24;;;;;;;2.28;2.08;;;;;;;38.64;29.54;93832.56;5029888;28;20310;-50
2023/04/02 06:44:51;;;;;;;4.18;2.20;;;;;;;39.02;29.36;93854.69;5030275;28;20219;-51
2023/04/02 06:47:29;;;;;;;2.00;1.88;;;;;;;39.29;28.98;93850.53;5029757;28;20196;-54
2023/04/02 06:50:01;;;;;;;3.83;2.08;;;;;;;39.56;28.88;93854.34;5029732;28;20227;-53
2023/04/02 06:52:34;;;;;;;4.78;1.83;;;;;;;39.81;28.43;93858.50;5029814;28;20202;-51
2023/04/02 06:55:07;;;;;;;2.05;1.58;;;;;;;39.98;28.30;93859.25;5029977;28;20568;-51
2023/04/02 06:57:34;;;;;;;3.00;1.70;;;;;;;40.11;28.60;93872.28;5029668;28;20199;-52
2023/04/02 07:00:01;;;;;;;2.95;2.20;;;;;;;40.16;28.24;93870.44;5030283;28;20211;-52
2023/04/02 07:02:33;;;;;;;3.00;1.85;;;;;;;40.13;28.67;93870.03;5029556;28;20699;-53
2023/04/02 07:05:03;;;;;;;2.33;1.85;;;;;;;40.09;28.69;93871.03;5029811;28;20540;-54
2023/04/02 07:07:32;;;;;;;2.15;1.80;;;;;;;39.98;28.11;93875.34;5029495;28;20195;-51
2023/04/02 07:09:58;;;;;;;2.60;2.40;;;;;;;39.88;28.17;93873.94;5029689;28;20218;-51
2023/04/02 07:12:26;;;;;;;2.47;2.20;;;;;;;39.77;28.62;93876.34;5029677;28;20218;-53
2023/04/02 07:14:53;;;;;;;2.20;2.00;;;;;;;39.74;28.29;93870.91;5029920;28;20219;-53
2023/04/02 07:17:21;;;;;;;2.20;2.00;;;;;;;39.59;28.49;93857.09;5029689;28;20195;-52
2023/04/02 07:19:49;;;;;;;3.00;2.15;;;;;;;39.71;28.64;93883.06;5029626;28;20253;-52
2023/04/02 07:22:16;;;;;;;5.05;2.35;;;;;;;39.73;28.03;93878.16;5029754;28;20187;-56
2023/04/02 07:24:45;;;;;;;2.38;2.10;;;;;;;39.64;28.31;93885.53;5029025;28;20192;-54
2023/04/02 07:27:12;;;;;;;2.72;2.15;;;;;;;39.48;28.71;93882.81;5029397;28;20210;-54
2023/04/02 07:29:41;;;;;;;2.38;2.13;;;;;;;39.48;28.08;93885.47;5028829;28;20200;-53
2023/04/02 07:32:08;;;;;;;3.85;1.73;;;;;;;39.59;28.21;93885.75;5029145;28;20198;-51
2023/04/02 07:34:35;;;;;;;2.50;1.98;;;;;;;39.77;28.23;93886.25;5029299;28;20191;-53
2023/04/02 07:37:02;;;;;;;2.30;1.80;;;;;;;39.91;28.01;93889.34;5029313;28;20302;-52
2023/04/02 07:39:29;;;;;;;2.03;1.70;;;;;;;40.02;27.68;93894.94;5029042;28;20667;-56
2023/04/02 07:42:00;;;;;;;3.00;1.70;;;;;;;40.13;27.98;93896.81;5029229;28;20199;-54
2023/04/02 07:44:27;;;;;;;1.63;1.52;;;;;;;40.19;27.93;93891.97;5028555;28;20192;-57
2023/04/02 07:46:53;;;;;;;2.78;1.50;;;;;;;40.31;27.86;93881.19;5029339;28;20192;-55
2023/04/02 07:49:21;;;;;;;1.60;1.50;;;;;;;40.32;27.42;93890.78;5029035;28;20191;-54
2023/04/02 07:51:47;;;;;;;1.50;1.40;;;;;;;40.38;27.84;93891.31;5029421;28;20192;-55
2023/04/02 07:54:14;;;;;;;3.08;1.40;;;;;;;40.29;27.83;93885.34;5031006;28;20227;-53
2023/04/02 07:56:41;;;;;;;1.48;1.30;;;;;;;40.24;27.69;93880.22;5033444;28;20833;-56
2023/04/02 07:59:10;;;;;;;1.33;1.17;;;;;;;40.25;27.44;93897.88;5033168;28;20294;-53
2023/04/02 08:01:36;;;;;;;1.95;1.63;;;;;;;39.88;27.93;93890.78;5033284;28;20575;-53
2023/04/02 08:04:06;;;;;;;1.48;1.38;;;;;;;39.33;28.29;93889.63;5033513;28;20188;-54
2023/04/02 08:06:33;;;;;;;1.38;1.20;;;;;;;38.79;28.87;93891.84;5033465;28;20187;-51
2023/04/02 08:09:00;;;;;;;1.70;1.60;;;;;;;38.54;28.76;93894.47;5033592;28;20179;-52
2023/04/02 08:11:27;;;;;;;1.58;1.20;;;;;;;38.39;28.81;93900.50;5033276;28;20199;-53
2023/04/02 08:13:54;;;;;;;1.38;1.27;;;;;;;38.21;28.61;93893.75;5033419;28;20207;-53
2023/04/02 08:16:23;;;;;;;1.30;1.20;;;;;;;38.03;28.75;93899.28;5033102;28;20231;-53
2023/04/02 08:18:50;;;;;;;3.33;1.25;;;;;;;37.71;28.93;93897.38;5033236;28;20587;-53
2023/04/02 08:21:17;;;;;;;1.25;1.13;;;;;;;37.56;29.10;93904.88;5032954;28;20740;-51
2023/04/02 08:23:44;;;;;;;1.10;1.10;;;;;;;37.51;28.76;93909.63;5033039;28;20647;-52
2023/04/02 08:26:17;;;;;;;1.10;1.10;;;;;;;37.30;28.86;93910.38;5032897;28;20187;-50
2023/04/02 08:28:44;;;;;;;2.15;1.10;;;;;;;37.14;28.91;93912.09;5032771;28;20200;-52
2023/04/02 08:31:12;;;;;;;1.20;1.10;;;;;;;37.11;28.83;93904.72;5033104;28;20211;-51
2023/04/02 08:33:40;;;;;;;1.65;1.40;;;;;;;37.12;28.73;93906.28;5032710;28;20743;-52
2023/04/02 08:36:07;;;;;;;1.17;1.08;;;;;;;37.19;28.65;93903.91;5032462;28;20567;-51
2023/04/02 08:38:34;;;;;;;1.08;1.08;;;;;;;37.28;28.28;93911.84;5032728;28;20180;-51
2023/04/02 08:41:04;;;;;;;1.17;1.08;;;;;;;37.07;28.51;93904.59;5032418;28;20706;-50
2023/04/02 08:43:48;;;;;;;1.17;1.10;;;;;;;36.76;28.78;93912.13;5032659;28;20200;-52
2023/04/02 08:46:23;;;;;;;0.90;0.90;;;;;;;36.45;28.80;93912.44;5032312;28;20559;-52
2023/04/02 08:48:55;;;;;;;1.85;1.40;;;;;;;36.17;28.77;93913.56;5032619;28;20192;-54
2023/04/02 08:51:25;;;;;;;1.25;1.05;;;;;;;35.99;28.72;93911.28;5032164;28;20202;-50
2023/04/02 08:53:55;;;;;;;1.13;1.00;;;;;;;35.73;28.62;93912.06;5031969;28;20702;-55
2023/04/02 08:56:30;;;;;;;1.17;1.10;;;;;;;35.54;28.79;93917.72;5031750;28;20305;-55
2023/04/02 08:59:01;;;;;;;1.10;1.02;;;;;;;35.52;28.69;93919.91;5032031;28;20199;-50
2023/04/02 09:01:40;;;;;;;1.00;1.00;;;;;;;35.53;28.68;93910.81;5031814;28;20687;-51
2023/04/02 09:04:15;;;;;;;1.27;1.20;;;;;;;35.38;28.61;93887.34;5031735;28;20207;-51
2023/04/02 09:06:43;;;;;;;1.48;1.23;;;;;;;35.34;28.44;93911.13;5031681;28;20256;-51
2023/04/02 09:09:12;;;;;;;2.63;1.08;;;;;;;35.06;28.53;93897.34;5031896;28;20219;-50
2023/04/02 09:11:50;;;;;;;1.20;1.15;;;;;;;34.98;28.49;93907.97;5031628;28;20191;-54
2023/04/02 09:14:19;;;;;;;1.27;1.13;;;;;;;34.87;28.13;93900.25;5031571;28;20199;-53
2023/04/02 09:16:51;;;;;;;1.00;1.00;;;;;;;34.77;28.26;93897.09;5031466;28;20227;-52
2023/04/02 09:19:22;;;;;;;5.10;1.25;;;;;;;34.67;28.33;93901.63;5031968;28;20196;-56
2023/04/02 09:22:09;;;;;;;1.02;0.90;;;;;;;34.43;28.00;93906.50;5031944;28;20180;-53
2023/04/02 09:24:37;;;;;;;1.10;1.10;;;;;;;34.10;28.01;93903.38;5031548;28;20287;-52
2023/04/02 09:27:04;;;;;;;1.20;1.10;;;;;;;33.77;28.16;93903.63;5031984;28;20278;-52
2023/04/02 09:29:46;;;;;;;1.02;0.85;;;;;;;32.64;28.31;93793.25;5031531;28;20217;-51
2023/04/02 09:32:26;;;;;;;1.20;1.13;;;;;;;32.83;28.54;93889.25;5029159;28;20268;-52
2023/04/02 09:35:07;;;;;;;1.10;1.10;;;;;;;32.47;28.30;93897.09;5031336;28;20191;-50
2023/04/02 09:37:34;;;;;;;1.15;1.05;;;;;;;32.26;28.87;93898.56;5031560;28;20265;-49
2023/04/02 09:40:22;;;;;;;1.02;1.02;;;;;;;31.96;28.56;93893.50;5031141;28;20817;-52
2023/04/02 09:42:49;;;;;;;1.00;0.98;;;;;;;31.64;28.62;93896.13;5031338;28;20191;-53
2023/04/02 09:45:20;;;;;;;0.98;0.88;;;;;;;31.31;29.21;93890.03;5030979;28;20188;-54
2023/04/02 09:47:48;;;;;;;1.00;1.00;;;;;;;31.01;29.20;93885.94;5031256;28;20578;-51
2023/04/02 09:50:31;;;;;;;1.15;1.15;;;;;;;30.74;29.45;93879.41;5031115;28;20195;-52
2023/04/02 09:52:58;;;;;;;1.13;1.13;;;;;;;30.49;29.48;93875.22;5031326;28;20262;-50
2023/04/02 09:55:27;;;;;;;1.38;1.25;;;;;;;30.32;29.82;93873.03;5031333;28;20590;-51
2023/04/02 09:58:11;;;;;;;1.13;1.08;;;;;;;30.17;29.88;93866.03;5031147;28;20195;-49
2023/04/02 10:00:39;;;;;;;1.13;1.10;;;;;;;30.09;29.41;93871.13;5030920;28;20192;-50
2023/04/02 10:03:24;;;;;;;0.98;0.98;;;;;;;29.90;29.45;93858.66;5030811;28;20184;-49
2023/04/02 10:06:07;;;;;;;1.23;1.17;;;;;;;29.82;29.82;93872.44;5031122;28;20203;-54
2023/04/02 10:08:34;;;;;;;1.85;1.30;;;;;;;29.68;29.28;93874.16;5030871;28;20190;-50
2023/04/02 10:11:04;;;;;;;1.35;1.25;;;;;;;29.52;29.98;93867.38;5030687;28;20287;-50
2023/04/02 10:13:35;;;;;;;2.80;1.10;;;;;;;29.41;30.03;93861.44;5030285;28;20187;-49
2023/04/02 10:16:07;;;;;;;1.00;1.00;;;;;;;29.30;29.61;93844.13;5030290;28;20230;-47
2023/04/02 10:18:41;;;;;;;1.25;1.17;;;;;;;29.37;29.55;93850.66;5030503;28;20575;-52
2023/04/02 10:21:12;;;;;;;1.35;1.25;;;;;;;29.38;29.39;93849.59;5030824;28;20182;-49
2023/04/02 10:23:40;;;;;;;1.15;1.05;;;;;;;29.38;29.84;93849.59;5030297;28;20662;-51
2023/04/02 10:26:24;;;;;;;1.20;1.20;;;;;;;29.30;29.44;93852.03;5030235;28;20188;-52
2023/04/02 10:29:08;;;;;;;1.15;1.10;;;;;;;29.21;29.47;93849.19;5030326;28;20196;-50
2023/04/02 10:31:47;;;;;;;1.10;1.10;;;;;;;29.07;29.51;93854.28;5029990;28;20275;-50
2023/04/02 10:34:23;;;;;;;1.55;1.13;;;;;;;28.89;30.19;93854.91;5030198;28;20661;-53
2023/04/02 10:36:56;;;;;;;1.00;1.00;;;;;;;28.77;29.73;93852.59;5029655;28;20911;-51
2023/04/02 10:39:28;;;;;;;1.10;1.10;;;;;;;28.60;30.12;93854.78;5030319;28;20229;-50
2023/04/02 10:42:03;;;;;;;1.20;1.20;;;;;;;28.37;30.26;93853.53;5029891;28;20192;-50
2023/04/02 10:44:43;;;;;;;1.40;1.00;;;;;;;28.17;30.68;93854.38;5030288;28;20542;-50
2023/04/02 10:47:30;;;;;;;0.95;0.95;;;;;;;27.90;30.71;93849.47;5029785;28;20628;-55
2023/04/02 10:50:11;;;;;;;1.17;1.08;;;;;;;27.71;30.92;93854.44;5029838;28;20199;-52
2023/04/02 10:52:45;;;;;;;1.48;1.38;;;;;;;27.46;31.13;93855.25;5029758;28;20239;-51
2023/04/02 10:55:17;;;;;;;1.23;1.10;;;;;;;27.20;31.21;93852.63;5030004;28;20202;-56
2023/04/02 10:57:45;;;;;;;1.30;1.17;;;;;;;26.83;31.14;93829.19;5029943;28;20215;-51
2023/04/02 11:00:21;;;;;;;1.10;1.10;;;;;;;26.95;31.33;93848.09;5029275;28;20203;-55
2023/04/02 11:02:52;;;;;;;1.00;1.00;;;;;;;26.86;31.41;93841.78;5029622;28;20211;-49
2023/04/02 11:05:25;;;;;;;1.00;1.00;;;;;;;26.73;31.18;93850.16;5029314;28;20574;-50
2023/04/02 11:07:58;;;;;;;1.30;1.20;;;;;;;26.57;31.79;93849.31;5029553;28;20184;-50
2023/04/02 11:10:30;;;;;;;1.00;1.00;;;;;;;26.45;31.55;93844.28;5029354;28;20250;-52
2023/04/02 11:13:01;;;;;;;1.23;1.23;;;;;;;26.32;31.53;93855.22;5029740;28;20191;-49
2023/04/02 11:15:29;;;;;;;5.25;1.48;;;;;;;26.17;31.85;93848.09;5029288;28;20230;-50
2023/04/02 11:17:56;;;;;;;1.33;1.23;;;;;;;25.93;31.66;93844.28;5029632;28;20595;-50
2023/04/02 11:20:57;;;;;;;1.27;1.17;;;;;;;25.62;32.03;93845.91;5029411;28;20599;-51
2023/04/02 11:23:30;;;;;;;1.15;1.15;;;;;;;25.40;32.33;93841.56;5029443;28;20194;-49
2023/04/02 11:26:36;;;;;;;1.10;1.10;;;;;;;25.32;32.26;93838.59;5029293;28;20675;-51
2023/04/02 11:29:12;;;;;;;1.23;1.23;;;;;;;25.24;32.33;93835.41;5028848;28;20197;-53
2023/04/02 11:31:39;;;;;;;1.30;1.20;;;;;;;25.22;32.11;93839.31;5029289;28;20658;-56
2023/04/02 11:34:05;;;;;;;1.25;1.20;;;;;;;25.23;32.51;93844.28;5029212;28;20188;-53
2023/04/02 11:37:02;;;;;;;1.25;1.23;;;;;;;25.24;32.32;93835.41;5029242;28;20223;-53
2023/04/02 11:39:52;;;;;;;1.25;1.13;;;;;;;25.17;32.17;93832.22;5029460;28;20215;-53
2023/04/02 11:42:26;;;;;;;1.45;1.35;;;;;;;25.02;32.52;93829.41;5029267;28;20191;-49
2023/04/02 11:44:52;;;;;;;1.10;1.10;;;;;;;24.85;32.34;93828.75;5029541;28;20192;-51
2023/04/02 11:47:21;;;;;;;1.25;1.20;;;;;;;24.75;32.85;93825.00;5029156;28;20210;-51
2023/04/02 11:50:05;;;;;;;1.02;1.02;;;;;;;24.74;32.72;93825.22;5029111;28;20246;-51
2023/04/02 11:52:36;;;;;;;1.65;1.30;;;;;;;24.67;32.46;93822.81;5028940;28;20214;-50
2023/04/02 11:58:09;;;;;;;1.20;1.10;;;;;;;24.29;33.04;93814.00;5107283;27;20549;-53
2023/04/02 12:01:00;;;;;;;1.10;1.10;;;;;;;24.18;32.87;93821.97;5106443;28;20188;-52
2023/04/02 12:03:46;;;;;;;1.38;1.23;;;;;;;24.04;33.28;93821.53;5107212;28;20246;-52